sensor_id;sensor_type;location;lat;lon;timestamp;P1;durP1;ratioP1;P2;durP2;ratioP2
72437;SDS011;60444;43.534;-5.674;2023-05-07T00:01:36;9.88;;;2.65;;
72437;SDS011;60444;43.534;-5.674;2023-05-07T00:04:01;13.40;;;3.30;;
72437;SDS011;60444;43.534;-5.674;2023-05-07T00:06:28;13.35;;;3.55;;
72437;SDS011;60444;43.534;-5.674;2023-05-07T00:08:54;12.98;;;3.38;;
72437;SDS011;60444;43.534;-5.674;2023-05-07T00:11:21;14.45;;;3.53;;
72437;SDS011;60444;43.534;-5.674;2023-05-07T00:13:47;17.47;;;4.30;;
72437;SDS011;60444;43.534;-5.674;2023-05-07T00:16:13;9.80;;;2.50;;
72437;SDS011;60444;43.534;-5.674;2023-05-07T00:18:38;12.43;;;3.67;;
72437;SDS011;60444;43.534;-5.674;2023-05-07T00:21:04;13.13;;;3.73;;
72437;SDS011;60444;43.534;-5.674;2023-05-07T00:23:29;17.63;;;3.45;;
72437;SDS011;60444;43.534;-5.674;2023-05-07T00:25:55;15.93;;;4.37;;
72437;SDS011;60444;43.534;-5.674;2023-05-07T00:28:21;16.70;;;4.30;;
72437;SDS011;60444;43.534;-5.674;2023-05-07T00:30:46;16.03;;;3.97;;
72437;SDS011;60444;43.534;-5.674;2023-05-07T00:33:12;15.23;;;4.13;;
72437;SDS011;60444;43.534;-5.674;2023-05-07T00:35:37;11.80;;;3.10;;
72437;SDS011;60444;43.534;-5.674;2023-05-07T00:38:03;16.63;;;4.37;;
72437;SDS011;60444;43.534;-5.674;2023-05-07T00:40:28;11.75;;;2.92;;
72437;SDS011;60444;43.534;-5.674;2023-05-07T00:42:54;13.50;;;3.67;;
72437;SDS011;60444;43.534;-5.674;2023-05-07T00:45:24;19.67;;;3.78;;
72437;SDS011;60444;43.534;-5.674;2023-05-07T00:47:55;13.00;;;3.63;;
72437;SDS011;60444;43.534;-5.674;2023-05-07T00:50:24;16.63;;;4.25;;
72437;SDS011;60444;43.534;-5.674;2023-05-07T00:52:51;19.23;;;4.53;;
72437;SDS011;60444;43.534;-5.674;2023-05-07T00:55:17;15.32;;;3.72;;
72437;SDS011;60444;43.534;-5.674;2023-05-07T00:57:43;16.17;;;3.97;;
72437;SDS011;60444;43.534;-5.674;2023-05-07T01:00:10;18.75;;;3.72;;
72437;SDS011;60444;43.534;-5.674;2023-05-07T01:02:40;13.32;;;3.70;;
72437;SDS011;60444;43.534;-5.674;2023-05-07T01:05:07;16.55;;;3.40;;
72437;SDS011;60444;43.534;-5.674;2023-05-07T01:07:37;17.90;;;4.15;;
72437;SDS011;60444;43.534;-5.674;2023-05-07T01:10:05;18.83;;;4.30;;
72437;SDS011;60444;43.534;-5.674;2023-05-07T01:12:32;21.63;;;4.03;;
72437;SDS011;60444;43.534;-5.674;2023-05-07T01:14:59;18.70;;;4.45;;
72437;SDS011;60444;43.534;-5.674;2023-05-07T01:17:25;17.50;;;3.78;;
72437;SDS011;60444;43.534;-5.674;2023-05-07T01:19:50;17.17;;;4.27;;
72437;SDS011;60444;43.534;-5.674;2023-05-07T01:22:22;22.17;;;4.13;;
72437;SDS011;60444;43.534;-5.674;2023-05-07T01:24:53;19.58;;;4.20;;
72437;SDS011;60444;43.534;-5.674;2023-05-07T01:27:21;22.92;;;5.18;;
72437;SDS011;60444;43.534;-5.674;2023-05-07T01:29:46;22.20;;;4.70;;
72437;SDS011;60444;43.534;-5.674;2023-05-07T01:32:12;18.70;;;3.70;;
72437;SDS011;60444;43.534;-5.674;2023-05-07T01:34:39;14.15;;;4.43;;
72437;SDS011;60444;43.534;-5.674;2023-05-07T01:37:05;12.43;;;3.50;;
72437;SDS011;60444;43.534;-5.674;2023-05-07T01:39:31;17.50;;;3.97;;
72437;SDS011;60444;43.534;-5.674;2023-05-07T01:41:57;23.42;;;4.32;;
72437;SDS011;60444;43.534;-5.674;2023-05-07T01:44:24;17.75;;;4.55;;
72437;SDS011;60444;43.534;-5.674;2023-05-07T01:46:51;21.75;;;3.95;;
72437;SDS011;60444;43.534;-5.674;2023-05-07T01:49:17;18.60;;;4.83;;
72437;SDS011;60444;43.534;-5.674;2023-05-07T01:51:43;20.95;;;3.72;;
72437;SDS011;60444;43.534;-5.674;2023-05-07T01:54:08;22.20;;;4.30;;
72437;SDS011;60444;43.534;-5.674;2023-05-07T01:56:34;21.58;;;4.25;;
72437;SDS011;60444;43.534;-5.674;2023-05-07T01:59:00;20.33;;;4.97;;
72437;SDS011;60444;43.534;-5.674;2023-05-07T02:01:27;16.90;;;4.57;;
72437;SDS011;60444;43.534;-5.674;2023-05-07T02:03:52;15.30;;;3.00;;
72437;SDS011;60444;43.534;-5.674;2023-05-07T02:06:18;16.92;;;4.35;;
72437;SDS011;60444;43.534;-5.674;2023-05-07T02:08:44;20.08;;;4.28;;
72437;SDS011;60444;43.534;-5.674;2023-05-07T02:11:10;19.20;;;4.03;;
72437;SDS011;60444;43.534;-5.674;2023-05-07T02:13:35;18.17;;;4.87;;
72437;SDS011;60444;43.534;-5.674;2023-05-07T02:16:02;13.70;;;3.25;;
72437;SDS011;60444;43.534;-5.674;2023-05-07T02:18:28;13.82;;;3.50;;
72437;SDS011;60444;43.534;-5.674;2023-05-07T02:20:54;15.77;;;3.72;;
72437;SDS011;60444;43.534;-5.674;2023-05-07T02:23:19;20.73;;;3.57;;
72437;SDS011;60444;43.534;-5.674;2023-05-07T02:25:44;20.00;;;5.03;;
72437;SDS011;60444;43.534;-5.674;2023-05-07T02:28:11;18.73;;;4.68;;
72437;SDS011;60444;43.534;-5.674;2023-05-07T02:30:38;19.60;;;4.07;;
72437;SDS011;60444;43.534;-5.674;2023-05-07T02:33:05;17.33;;;4.90;;
72437;SDS011;60444;43.534;-5.674;2023-05-07T02:35:32;24.23;;;4.53;;
72437;SDS011;60444;43.534;-5.674;2023-05-07T02:37:57;16.15;;;4.53;;
72437;SDS011;60444;43.534;-5.674;2023-05-07T02:40:23;17.67;;;3.53;;
72437;SDS011;60444;43.534;-5.674;2023-05-07T02:42:48;21.10;;;4.60;;
72437;SDS011;60444;43.534;-5.674;2023-05-07T02:45:14;22.47;;;5.23;;
72437;SDS011;60444;43.534;-5.674;2023-05-07T02:47:40;15.20;;;3.60;;
72437;SDS011;60444;43.534;-5.674;2023-05-07T02:50:05;13.17;;;3.70;;
72437;SDS011;60444;43.534;-5.674;2023-05-07T02:52:31;12.18;;;3.25;;
72437;SDS011;60444;43.534;-5.674;2023-05-07T02:54:57;16.70;;;4.47;;
72437;SDS011;60444;43.534;-5.674;2023-05-07T02:57:22;18.23;;;3.87;;
72437;SDS011;60444;43.534;-5.674;2023-05-07T02:59:48;18.73;;;3.97;;
72437;SDS011;60444;43.534;-5.674;2023-05-07T03:02:13;14.67;;;3.07;;
72437;SDS011;60444;43.534;-5.674;2023-05-07T03:04:42;15.83;;;3.50;;
72437;SDS011;60444;43.534;-5.674;2023-05-07T03:07:07;22.38;;;3.65;;
72437;SDS011;60444;43.534;-5.674;2023-05-07T03:09:33;15.83;;;3.67;;
72437;SDS011;60444;43.534;-5.674;2023-05-07T03:11:58;16.50;;;4.13;;
72437;SDS011;60444;43.534;-5.674;2023-05-07T03:14:24;17.95;;;4.07;;
72437;SDS011;60444;43.534;-5.674;2023-05-07T03:16:49;20.40;;;3.90;;
72437;SDS011;60444;43.534;-5.674;2023-05-07T03:19:15;13.98;;;3.67;;
72437;SDS011;60444;43.534;-5.674;2023-05-07T03:21:41;15.40;;;3.63;;
72437;SDS011;60444;43.534;-5.674;2023-05-07T03:24:06;15.77;;;3.90;;
72437;SDS011;60444;43.534;-5.674;2023-05-07T03:26:32;16.07;;;3.30;;
72437;SDS011;60444;43.534;-5.674;2023-05-07T03:28:57;18.13;;;4.10;;
72437;SDS011;60444;43.534;-5.674;2023-05-07T03:31:23;17.17;;;3.70;;
72437;SDS011;60444;43.534;-5.674;2023-05-07T03:33:49;19.17;;;4.00;;
72437;SDS011;60444;43.534;-5.674;2023-05-07T03:36:20;17.48;;;4.47;;
72437;SDS011;60444;43.534;-5.674;2023-05-07T03:38:47;18.90;;;3.95;;
72437;SDS011;60444;43.534;-5.674;2023-05-07T03:41:13;20.63;;;4.00;;
72437;SDS011;60444;43.534;-5.674;2023-05-07T03:43:39;19.08;;;4.38;;
72437;SDS011;60444;43.534;-5.674;2023-05-07T03:46:04;13.60;;;3.67;;
72437;SDS011;60444;43.534;-5.674;2023-05-07T03:48:30;16.70;;;3.53;;
72437;SDS011;60444;43.534;-5.674;2023-05-07T03:50:56;17.77;;;3.57;;
72437;SDS011;60444;43.534;-5.674;2023-05-07T03:53:25;14.02;;;3.60;;
72437;SDS011;60444;43.534;-5.674;2023-05-07T03:55:50;20.57;;;3.90;;
72437;SDS011;60444;43.534;-5.674;2023-05-07T03:58:16;16.63;;;3.93;;
72437;SDS011;60444;43.534;-5.674;2023-05-07T04:00:41;19.00;;;4.25;;
72437;SDS011;60444;43.534;-5.674;2023-05-07T04:03:07;17.03;;;3.93;;
72437;SDS011;60444;43.534;-5.674;2023-05-07T04:05:33;17.17;;;3.95;;
72437;SDS011;60444;43.534;-5.674;2023-05-07T04:07:58;13.13;;;3.90;;
72437;SDS011;60444;43.534;-5.674;2023-05-07T04:10:28;18.05;;;4.22;;
72437;SDS011;60444;43.534;-5.674;2023-05-07T04:12:54;15.45;;;3.70;;
72437;SDS011;60444;43.534;-5.674;2023-05-07T04:15:20;16.23;;;4.40;;
72437;SDS011;60444;43.534;-5.674;2023-05-07T04:17:45;11.67;;;4.20;;
72437;SDS011;60444;43.534;-5.674;2023-05-07T04:20:13;14.73;;;4.57;;
72437;SDS011;60444;43.534;-5.674;2023-05-07T04:22:40;16.92;;;4.22;;
72437;SDS011;60444;43.534;-5.674;2023-05-07T04:25:07;15.93;;;4.40;;
72437;SDS011;60444;43.534;-5.674;2023-05-07T04:27:34;15.75;;;4.60;;
72437;SDS011;60444;43.534;-5.674;2023-05-07T04:30:00;15.48;;;4.35;;
72437;SDS011;60444;43.534;-5.674;2023-05-07T04:32:25;16.33;;;5.13;;
72437;SDS011;60444;43.534;-5.674;2023-05-07T04:34:51;20.80;;;4.68;;
72437;SDS011;60444;43.534;-5.674;2023-05-07T04:37:17;17.90;;;4.22;;
72437;SDS011;60444;43.534;-5.674;2023-05-07T04:39:42;14.87;;;4.63;;
72437;SDS011;60444;43.534;-5.674;2023-05-07T04:42:09;18.63;;;4.82;;
72437;SDS011;60444;43.534;-5.674;2023-05-07T04:44:40;18.50;;;4.95;;
72437;SDS011;60444;43.534;-5.674;2023-05-07T04:47:06;16.23;;;4.57;;
72437;SDS011;60444;43.534;-5.674;2023-05-07T04:49:31;17.80;;;4.60;;
72437;SDS011;60444;43.534;-5.674;2023-05-07T04:51:57;16.73;;;3.80;;
72437;SDS011;60444;43.534;-5.674;2023-05-07T04:54:22;14.50;;;4.22;;
72437;SDS011;60444;43.534;-5.674;2023-05-07T04:56:48;17.07;;;4.97;;
72437;SDS011;60444;43.534;-5.674;2023-05-07T04:59:13;21.57;;;4.40;;
72437;SDS011;60444;43.534;-5.674;2023-05-07T05:01:39;16.85;;;4.68;;
72437;SDS011;60444;43.534;-5.674;2023-05-07T05:04:05;18.53;;;5.00;;
72437;SDS011;60444;43.534;-5.674;2023-05-07T05:06:30;16.67;;;4.22;;
72437;SDS011;60444;43.534;-5.674;2023-05-07T05:08:56;18.10;;;4.50;;
72437;SDS011;60444;43.534;-5.674;2023-05-07T05:11:21;24.00;;;5.30;;
72437;SDS011;60444;43.534;-5.674;2023-05-07T05:13:47;18.77;;;4.55;;
72437;SDS011;60444;43.534;-5.674;2023-05-07T05:16:14;21.83;;;5.30;;
72437;SDS011;60444;43.534;-5.674;2023-05-07T05:18:40;18.40;;;4.82;;
72437;SDS011;60444;43.534;-5.674;2023-05-07T05:21:06;18.50;;;4.80;;
72437;SDS011;60444;43.534;-5.674;2023-05-07T05:23:31;24.33;;;5.80;;
72437;SDS011;60444;43.534;-5.674;2023-05-07T05:25:57;19.73;;;4.80;;
72437;SDS011;60444;43.534;-5.674;2023-05-07T05:28:23;19.77;;;5.13;;
72437;SDS011;60444;43.534;-5.674;2023-05-07T05:30:49;19.92;;;4.72;;
72437;SDS011;60444;43.534;-5.674;2023-05-07T05:33:15;19.20;;;4.82;;
72437;SDS011;60444;43.534;-5.674;2023-05-07T05:35:41;21.03;;;5.40;;
72437;SDS011;60444;43.534;-5.674;2023-05-07T05:38:07;19.30;;;4.82;;
72437;SDS011;60444;43.534;-5.674;2023-05-07T05:40:33;21.83;;;5.13;;
72437;SDS011;60444;43.534;-5.674;2023-05-07T05:42:58;17.15;;;4.90;;
72437;SDS011;60444;43.534;-5.674;2023-05-07T05:45:24;16.77;;;4.50;;
72437;SDS011;60444;43.534;-5.674;2023-05-07T05:47:50;14.05;;;4.13;;
72437;SDS011;60444;43.534;-5.674;2023-05-07T05:50:15;21.17;;;5.50;;
72437;SDS011;60444;43.534;-5.674;2023-05-07T05:52:41;21.58;;;5.70;;
72437;SDS011;60444;43.534;-5.674;2023-05-07T05:55:07;18.90;;;5.47;;
72437;SDS011;60444;43.534;-5.674;2023-05-07T05:57:33;18.27;;;6.38;;
72437;SDS011;60444;43.534;-5.674;2023-05-07T05:59:59;21.13;;;6.50;;
72437;SDS011;60444;43.534;-5.674;2023-05-07T06:02:25;17.35;;;4.95;;
72437;SDS011;60444;43.534;-5.674;2023-05-07T06:04:51;28.67;;;6.30;;
72437;SDS011;60444;43.534;-5.674;2023-05-07T06:07:16;30.23;;;5.87;;
72437;SDS011;60444;43.534;-5.674;2023-05-07T06:09:42;21.43;;;5.93;;
72437;SDS011;60444;43.534;-5.674;2023-05-07T06:12:07;23.20;;;6.67;;
72437;SDS011;60444;43.534;-5.674;2023-05-07T06:14:36;28.03;;;5.90;;
72437;SDS011;60444;43.534;-5.674;2023-05-07T06:17:02;31.45;;;6.15;;
72437;SDS011;60444;43.534;-5.674;2023-05-07T06:19:27;24.90;;;5.90;;
72437;SDS011;60444;43.534;-5.674;2023-05-07T06:21:53;25.90;;;5.40;;
72437;SDS011;60444;43.534;-5.674;2023-05-07T06:24:22;23.75;;;4.97;;
72437;SDS011;60444;43.534;-5.674;2023-05-07T06:26:47;23.77;;;5.82;;
72437;SDS011;60444;43.534;-5.674;2023-05-07T06:29:13;20.00;;;5.60;;
72437;SDS011;60444;43.534;-5.674;2023-05-07T06:31:38;23.53;;;5.47;;
72437;SDS011;60444;43.534;-5.674;2023-05-07T06:34:04;19.88;;;4.75;;
72437;SDS011;60444;43.534;-5.674;2023-05-07T06:36:30;22.37;;;5.73;;
72437;SDS011;60444;43.534;-5.674;2023-05-07T06:38:55;22.85;;;5.55;;
72437;SDS011;60444;43.534;-5.674;2023-05-07T06:41:21;20.43;;;5.17;;
72437;SDS011;60444;43.534;-5.674;2023-05-07T06:43:46;21.90;;;5.43;;
72437;SDS011;60444;43.534;-5.674;2023-05-07T06:46:12;19.23;;;4.43;;
72437;SDS011;60444;43.534;-5.674;2023-05-07T06:48:37;24.17;;;5.50;;
72437;SDS011;60444;43.534;-5.674;2023-05-07T06:51:03;19.60;;;5.63;;
72437;SDS011;60444;43.534;-5.674;2023-05-07T06:53:30;23.13;;;5.60;;
72437;SDS011;60444;43.534;-5.674;2023-05-07T06:55:56;19.90;;;4.45;;
72437;SDS011;60444;43.534;-5.674;2023-05-07T06:58:22;23.97;;;5.77;;
72437;SDS011;60444;43.534;-5.674;2023-05-07T07:00:48;19.55;;;5.20;;
72437;SDS011;60444;43.534;-5.674;2023-05-07T07:03:13;19.92;;;5.50;;
72437;SDS011;60444;43.534;-5.674;2023-05-07T07:05:42;19.60;;;5.43;;
72437;SDS011;60444;43.534;-5.674;2023-05-07T07:08:08;22.05;;;5.22;;
72437;SDS011;60444;43.534;-5.674;2023-05-07T07:10:34;21.98;;;5.10;;
72437;SDS011;60444;43.534;-5.674;2023-05-07T07:13:00;21.20;;;5.73;;
72437;SDS011;60444;43.534;-5.674;2023-05-07T07:15:26;24.15;;;5.70;;
72437;SDS011;60444;43.534;-5.674;2023-05-07T07:17:51;26.07;;;5.33;;
72437;SDS011;60444;43.534;-5.674;2023-05-07T07:20:17;20.10;;;4.97;;
72437;SDS011;60444;43.534;-5.674;2023-05-07T07:22:42;22.75;;;5.00;;
72437;SDS011;60444;43.534;-5.674;2023-05-07T07:25:08;22.53;;;5.53;;
72437;SDS011;60444;43.534;-5.674;2023-05-07T07:27:34;24.88;;;4.88;;
72437;SDS011;60444;43.534;-5.674;2023-05-07T07:30:01;21.25;;;4.53;;
72437;SDS011;60444;43.534;-5.674;2023-05-07T07:32:26;19.03;;;4.37;;
72437;SDS011;60444;43.534;-5.674;2023-05-07T07:34:52;20.13;;;4.47;;
72437;SDS011;60444;43.534;-5.674;2023-05-07T07:37:17;19.52;;;4.43;;
72437;SDS011;60444;43.534;-5.674;2023-05-07T07:39:42;22.80;;;5.13;;
72437;SDS011;60444;43.534;-5.674;2023-05-07T07:42:08;18.30;;;5.20;;
72437;SDS011;60444;43.534;-5.674;2023-05-07T07:44:34;22.77;;;5.63;;
72437;SDS011;60444;43.534;-5.674;2023-05-07T07:46:59;17.00;;;5.03;;
72437;SDS011;60444;43.534;-5.674;2023-05-07T07:49:25;22.35;;;4.85;;
72437;SDS011;60444;43.534;-5.674;2023-05-07T07:51:51;20.50;;;4.70;;
72437;SDS011;60444;43.534;-5.674;2023-05-07T07:54:17;27.42;;;5.25;;
72437;SDS011;60444;43.534;-5.674;2023-05-07T07:56:42;14.63;;;3.43;;
72437;SDS011;60444;43.534;-5.674;2023-05-07T07:59:08;23.17;;;5.15;;
72437;SDS011;60444;43.534;-5.674;2023-05-07T08:01:33;23.07;;;5.03;;
72437;SDS011;60444;43.534;-5.674;2023-05-07T08:04:00;20.20;;;5.17;;
72437;SDS011;60444;43.534;-5.674;2023-05-07T08:06:28;29.58;;;6.13;;
72437;SDS011;60444;43.534;-5.674;2023-05-07T08:08:53;18.42;;;4.20;;
72437;SDS011;60444;43.534;-5.674;2023-05-07T08:11:19;21.10;;;4.13;;
72437;SDS011;60444;43.534;-5.674;2023-05-07T08:13:46;19.02;;;4.15;;
72437;SDS011;60444;43.534;-5.674;2023-05-07T08:16:11;19.87;;;4.10;;
72437;SDS011;60444;43.534;-5.674;2023-05-07T08:18:37;18.03;;;4.90;;
72437;SDS011;60444;43.534;-5.674;2023-05-07T08:21:02;18.17;;;4.80;;
72437;SDS011;60444;43.534;-5.674;2023-05-07T08:23:28;15.97;;;4.20;;
72437;SDS011;60444;43.534;-5.674;2023-05-07T08:25:54;23.75;;;4.50;;
72437;SDS011;60444;43.534;-5.674;2023-05-07T08:28:19;21.40;;;4.20;;
72437;SDS011;60444;43.534;-5.674;2023-05-07T08:30:46;23.35;;;4.38;;
72437;SDS011;60444;43.534;-5.674;2023-05-07T08:33:12;17.87;;;3.80;;
72437;SDS011;60444;43.534;-5.674;2023-05-07T08:35:38;18.30;;;4.80;;
72437;SDS011;60444;43.534;-5.674;2023-05-07T08:38:03;19.17;;;3.73;;
72437;SDS011;60444;43.534;-5.674;2023-05-07T08:40:29;18.35;;;4.07;;
72437;SDS011;60444;43.534;-5.674;2023-05-07T08:43:05;23.10;;;4.53;;
72437;SDS011;60444;43.534;-5.674;2023-05-07T08:45:31;17.55;;;4.18;;
72437;SDS011;60444;43.534;-5.674;2023-05-07T08:47:58;20.10;;;4.30;;
72437;SDS011;60444;43.534;-5.674;2023-05-07T08:50:26;23.15;;;4.40;;
72437;SDS011;60444;43.534;-5.674;2023-05-07T08:52:52;18.15;;;3.85;;
72437;SDS011;60444;43.534;-5.674;2023-05-07T08:55:18;20.07;;;4.50;;
72437;SDS011;60444;43.534;-5.674;2023-05-07T08:57:44;20.40;;;4.88;;
72437;SDS011;60444;43.534;-5.674;2023-05-07T09:00:10;18.57;;;4.10;;
72437;SDS011;60444;43.534;-5.674;2023-05-07T09:02:36;23.63;;;4.78;;
72437;SDS011;60444;43.534;-5.674;2023-05-07T09:05:02;19.85;;;4.70;;
72437;SDS011;60444;43.534;-5.674;2023-05-07T09:07:28;24.60;;;5.00;;
72437;SDS011;60444;43.534;-5.674;2023-05-07T09:09:53;17.17;;;4.47;;
72437;SDS011;60444;43.534;-5.674;2023-05-07T09:12:23;19.58;;;4.70;;
72437;SDS011;60444;43.534;-5.674;2023-05-07T09:14:49;17.73;;;4.53;;
72437;SDS011;60444;43.534;-5.674;2023-05-07T09:17:15;19.70;;;5.07;;
72437;SDS011;60444;43.534;-5.674;2023-05-07T09:19:42;28.40;;;4.45;;
72437;SDS011;60444;43.534;-5.674;2023-05-07T09:22:11;22.33;;;4.38;;
72437;SDS011;60444;43.534;-5.674;2023-05-07T09:24:37;20.23;;;3.50;;
72437;SDS011;60444;43.534;-5.674;2023-05-07T09:27:03;17.73;;;3.35;;
72437;SDS011;60444;43.534;-5.674;2023-05-07T09:29:29;21.90;;;3.75;;
72437;SDS011;60444;43.534;-5.674;2023-05-07T09:32:00;18.83;;;3.63;;
72437;SDS011;60444;43.534;-5.674;2023-05-07T09:34:26;19.45;;;3.67;;
72437;SDS011;60444;43.534;-5.674;2023-05-07T09:36:52;18.67;;;3.63;;
72437;SDS011;60444;43.534;-5.674;2023-05-07T09:39:18;16.25;;;3.97;;
72437;SDS011;60444;43.534;-5.674;2023-05-07T09:41:45;13.87;;;3.40;;
72437;SDS011;60444;43.534;-5.674;2023-05-07T09:44:11;17.92;;;3.00;;
72437;SDS011;60444;43.534;-5.674;2023-05-07T09:46:39;16.60;;;3.50;;
72437;SDS011;60444;43.534;-5.674;2023-05-07T09:49:08;12.10;;;2.88;;
72437;SDS011;60444;43.534;-5.674;2023-05-07T09:51:49;13.23;;;2.45;;
72437;SDS011;60444;43.534;-5.674;2023-05-07T09:54:15;12.97;;;2.90;;
72437;SDS011;60444;43.534;-5.674;2023-05-07T09:56:45;17.17;;;3.53;;
72437;SDS011;60444;43.534;-5.674;2023-05-07T09:59:13;13.38;;;3.00;;
72437;SDS011;60444;43.534;-5.674;2023-05-07T10:01:40;11.55;;;2.33;;
72437;SDS011;60444;43.534;-5.674;2023-05-07T10:04:07;13.93;;;2.80;;
72437;SDS011;60444;43.534;-5.674;2023-05-07T10:06:34;14.13;;;3.20;;
72437;SDS011;60444;43.534;-5.674;2023-05-07T10:09:00;14.50;;;3.13;;
72437;SDS011;60444;43.534;-5.674;2023-05-07T10:11:27;17.23;;;3.35;;
72437;SDS011;60444;43.534;-5.674;2023-05-07T10:13:53;14.30;;;3.15;;
72437;SDS011;60444;43.534;-5.674;2023-05-07T10:16:20;13.05;;;3.10;;
72437;SDS011;60444;43.534;-5.674;2023-05-07T10:18:46;9.73;;;2.50;;
72437;SDS011;60444;43.534;-5.674;2023-05-07T10:21:18;13.35;;;2.55;;
72437;SDS011;60444;43.534;-5.674;2023-05-07T10:23:45;12.32;;;2.53;;
72437;SDS011;60444;43.534;-5.674;2023-05-07T10:26:15;9.07;;;2.03;;
72437;SDS011;60444;43.534;-5.674;2023-05-07T10:28:44;14.68;;;2.17;;
72437;SDS011;60444;43.534;-5.674;2023-05-07T10:33:57;12.13;;;2.75;;
72437;SDS011;60444;43.534;-5.674;2023-05-07T10:36:24;15.85;;;2.92;;
72437;SDS011;60444;43.534;-5.674;2023-05-07T10:38:51;12.40;;;2.30;;
72437;SDS011;60444;43.534;-5.674;2023-05-07T10:41:17;10.73;;;2.27;;
72437;SDS011;60444;43.534;-5.674;2023-05-07T10:43:44;14.30;;;2.92;;
72437;SDS011;60444;43.534;-5.674;2023-05-07T10:51:30;14.20;;;2.78;;
72437;SDS011;60444;43.534;-5.674;2023-05-07T10:56:36;13.32;;;3.38;;
72437;SDS011;60444;43.534;-5.674;2023-05-07T11:04:27;10.27;;;1.98;;
72437;SDS011;60444;43.534;-5.674;2023-05-07T11:15:05;9.83;;;3.20;;
72437;SDS011;60444;43.534;-5.674;2023-05-07T11:17:34;8.93;;;1.88;;
72437;SDS011;60444;43.534;-5.674;2023-05-07T11:20:16;11.48;;;2.33;;
72437;SDS011;60444;43.534;-5.674;2023-05-07T11:22:49;9.98;;;2.00;;
72437;SDS011;60444;43.534;-5.674;2023-05-07T11:25:18;9.50;;;2.13;;
72437;SDS011;60444;43.534;-5.674;2023-05-07T11:27:44;11.30;;;2.13;;
72437;SDS011;60444;43.534;-5.674;2023-05-07T11:30:10;10.90;;;1.80;;
72437;SDS011;60444;43.534;-5.674;2023-05-07T11:32:41;9.03;;;1.93;;
72437;SDS011;60444;43.534;-5.674;2023-05-07T11:35:07;8.45;;;1.70;;
72437;SDS011;60444;43.534;-5.674;2023-05-07T11:37:33;6.45;;;1.42;;
72437;SDS011;60444;43.534;-5.674;2023-05-07T11:40:08;10.97;;;2.00;;
72437;SDS011;60444;43.534;-5.674;2023-05-07T11:42:36;8.15;;;1.88;;
72437;SDS011;60444;43.534;-5.674;2023-05-07T11:45:03;11.20;;;3.13;;
72437;SDS011;60444;43.534;-5.674;2023-05-07T11:47:34;9.77;;;2.83;;
72437;SDS011;60444;43.534;-5.674;2023-05-07T11:50:06;10.38;;;2.25;;
72437;SDS011;60444;43.534;-5.674;2023-05-07T11:52:33;9.02;;;1.40;;
72437;SDS011;60444;43.534;-5.674;2023-05-07T11:54:59;7.00;;;1.83;;
72437;SDS011;60444;43.534;-5.674;2023-05-07T11:57:26;10.13;;;1.53;;
72437;SDS011;60444;43.534;-5.674;2023-05-07T11:59:53;7.57;;;1.83;;
72437;SDS011;60444;43.534;-5.674;2023-05-07T12:02:19;12.00;;;1.92;;
72437;SDS011;60444;43.534;-5.674;2023-05-07T12:04:45;8.03;;;1.57;;
72437;SDS011;60444;43.534;-5.674;2023-05-07T12:07:14;8.38;;;1.67;;
72437;SDS011;60444;43.534;-5.674;2023-05-07T12:09:43;7.43;;;1.47;;
72437;SDS011;60444;43.534;-5.674;2023-05-07T12:12:10;8.27;;;1.42;;
72437;SDS011;60444;43.534;-5.674;2023-05-07T12:14:39;8.00;;;2.10;;
72437;SDS011;60444;43.534;-5.674;2023-05-07T12:17:05;7.43;;;1.50;;
72437;SDS011;60444;43.534;-5.674;2023-05-07T12:19:33;9.20;;;1.90;;
72437;SDS011;60444;43.534;-5.674;2023-05-07T12:22:00;10.97;;;1.73;;
72437;SDS011;60444;43.534;-5.674;2023-05-07T12:24:27;10.20;;;1.38;;
72437;SDS011;60444;43.534;-5.674;2023-05-07T12:26:53;9.30;;;1.70;;
72437;SDS011;60444;43.534;-5.674;2023-05-07T12:29:22;10.27;;;2.10;;
72437;SDS011;60444;43.534;-5.674;2023-05-07T12:31:49;8.43;;;1.40;;
72437;SDS011;60444;43.534;-5.674;2023-05-07T12:34:15;9.80;;;1.58;;
72437;SDS011;60444;43.534;-5.674;2023-05-07T12:36:41;11.43;;;1.90;;
72437;SDS011;60444;43.534;-5.674;2023-05-07T12:39:07;9.07;;;1.47;;
72437;SDS011;60444;43.534;-5.674;2023-05-07T12:41:53;6.00;;;1.20;;
72437;SDS011;60444;43.534;-5.674;2023-05-07T12:44:21;7.20;;;1.30;;
72437;SDS011;60444;43.534;-5.674;2023-05-07T12:46:48;7.03;;;1.30;;
72437;SDS011;60444;43.534;-5.674;2023-05-07T12:49:14;9.93;;;2.30;;
72437;SDS011;60444;43.534;-5.674;2023-05-07T12:51:40;7.57;;;1.47;;
72437;SDS011;60444;43.534;-5.674;2023-05-07T12:54:05;7.18;;;1.38;;
72437;SDS011;60444;43.534;-5.674;2023-05-07T12:56:31;6.30;;;2.00;;
72437;SDS011;60444;43.534;-5.674;2023-05-07T12:58:57;9.88;;;1.92;;
72437;SDS011;60444;43.534;-5.674;2023-05-07T13:01:28;8.57;;;1.45;;
72437;SDS011;60444;43.534;-5.674;2023-05-07T13:03:54;7.57;;;2.10;;
72437;SDS011;60444;43.534;-5.674;2023-05-07T13:06:20;6.57;;;1.90;;
72437;SDS011;60444;43.534;-5.674;2023-05-07T13:08:45;5.63;;;1.37;;
72437;SDS011;60444;43.534;-5.674;2023-05-07T13:11:11;7.20;;;1.50;;
72437;SDS011;60444;43.534;-5.674;2023-05-07T13:13:38;7.07;;;1.50;;
72437;SDS011;60444;43.534;-5.674;2023-05-07T13:16:05;10.05;;;1.50;;
72437;SDS011;60444;43.534;-5.674;2023-05-07T13:18:32;7.13;;;1.30;;
72437;SDS011;60444;43.534;-5.674;2023-05-07T13:20:59;6.75;;;1.60;;
72437;SDS011;60444;43.534;-5.674;2023-05-07T13:23:25;6.80;;;1.33;;
72437;SDS011;60444;43.534;-5.674;2023-05-07T13:25:51;7.18;;;1.70;;
72437;SDS011;60444;43.534;-5.674;2023-05-07T13:28:20;5.82;;;1.58;;
72437;SDS011;60444;43.534;-5.674;2023-05-07T13:30:47;6.70;;;1.10;;
72437;SDS011;60444;43.534;-5.674;2023-05-07T13:33:13;7.47;;;1.30;;
72437;SDS011;60444;43.534;-5.674;2023-05-07T13:35:39;8.57;;;1.43;;
72437;SDS011;60444;43.534;-5.674;2023-05-07T13:38:04;4.93;;;1.00;;
72437;SDS011;60444;43.534;-5.674;2023-05-07T13:40:30;5.87;;;1.40;;
72437;SDS011;60444;43.534;-5.674;2023-05-07T13:42:56;6.10;;;1.70;;
72437;SDS011;60444;43.534;-5.674;2023-05-07T13:45:23;6.40;;;1.77;;
72437;SDS011;60444;43.534;-5.674;2023-05-07T13:47:51;7.33;;;1.60;;
72437;SDS011;60444;43.534;-5.674;2023-05-07T13:50:16;5.93;;;1.15;;
72437;SDS011;60444;43.534;-5.674;2023-05-07T13:52:43;6.53;;;1.17;;
72437;SDS011;60444;43.534;-5.674;2023-05-07T13:55:15;6.13;;;1.10;;
72437;SDS011;60444;43.534;-5.674;2023-05-07T13:57:44;5.27;;;0.97;;
72437;SDS011;60444;43.534;-5.674;2023-05-07T14:00:10;5.80;;;1.10;;
72437;SDS011;60444;43.534;-5.674;2023-05-07T14:02:36;5.25;;;1.23;;
72437;SDS011;60444;43.534;-5.674;2023-05-07T14:05:02;5.87;;;1.47;;
72437;SDS011;60444;43.534;-5.674;2023-05-07T14:07:27;8.13;;;1.10;;
72437;SDS011;60444;43.534;-5.674;2023-05-07T14:09:54;6.50;;;1.23;;
72437;SDS011;60444;43.534;-5.674;2023-05-07T14:12:19;5.95;;;1.40;;
72437;SDS011;60444;43.534;-5.674;2023-05-07T14:14:45;6.93;;;1.57;;
72437;SDS011;60444;43.534;-5.674;2023-05-07T14:17:12;5.90;;;1.02;;
72437;SDS011;60444;43.534;-5.674;2023-05-07T14:19:37;5.85;;;1.08;;
72437;SDS011;60444;43.534;-5.674;2023-05-07T14:22:03;8.70;;;1.63;;
72437;SDS011;60444;43.534;-5.674;2023-05-07T14:24:28;6.23;;;1.43;;
72437;SDS011;60444;43.534;-5.674;2023-05-07T14:26:54;7.65;;;2.17;;
72437;SDS011;60444;43.534;-5.674;2023-05-07T14:29:20;9.13;;;1.50;;
72437;SDS011;60444;43.534;-5.674;2023-05-07T14:31:45;6.60;;;1.30;;
72437;SDS011;60444;43.534;-5.674;2023-05-07T14:34:11;7.13;;;1.27;;
72437;SDS011;60444;43.534;-5.674;2023-05-07T14:36:36;6.50;;;1.30;;
72437;SDS011;60444;43.534;-5.674;2023-05-07T14:39:03;7.90;;;1.45;;
72437;SDS011;60444;43.534;-5.674;2023-05-07T14:41:28;7.77;;;1.00;;
72437;SDS011;60444;43.534;-5.674;2023-05-07T14:43:54;6.17;;;1.30;;